National Weather Service Raw Text Product

Displaying AFOS PIL: TAFALO Received: 2018-04-17 05:35 UTC


992 
FTUS43 KDMX 170535
TAFALO
TAF
KALO 170535Z 1706/1806 29007KT P6SM SCT035
      TEMPO 1709/1713 5SM BR
     FM171400 35006KT P6SM SKC
     FM172100 04007KT P6SM FEW180
     FM180200 07008KT P6SM SCT050=